METAR Data
IDs: Format: Raw Decoded Include TAF

Data at: 0207 UTC 20 Jan 2022

KMLB 200153Z 00000KT 10SM CLR 15/11 A3015 RMK AO2 SLP210 T01500111

KMLB 192322Z 2000/2024 VRB04KT P6SM FEW040
  FM201600 22009KT P6SM FEW030


KTIX 200146Z 00000KT 7SM SCT050 14/13 A3017

KTIX 192322Z 2000/2024 VRB04KT P6SM SCT040
  FM201500 24008KT P6SM FEW030


KCOF 192356Z AUTO 15003KT 10SM CLR 19/13 A3015 RMK AO2 SLP214 T01900132 10231 20190 50000 $

TAF KCOF 191900Z 1919/2101 13006KT 9999 BKN050 QNH3013INS
  BECMG 1923/1924 VRB06KT 9999 SCT045 QNH3009INS
  BECMG 2008/2009 23009KT 9999 SCT045 QNH3007INS TX24/2019Z TN16/2009Z


KVRB 200153Z 00000KT 10SM SCT055 13/12 A3016 RMK AO2 SLP211 T01330122

KVRB 192322Z 2000/2024 VRB04KT P6SM SCT040
  FM201600 22009KT P6SM FEW030